createdAt,value
2023-04-18T00:00:05.211Z,94995.00
2023-04-18T00:01:05.218Z,94995.00
2023-04-18T00:02:05.317Z,94993.00
2023-04-18T00:03:05.438Z,94995.00
2023-04-18T00:04:05.543Z,94991.00
2023-04-18T00:05:05.346Z,94989.00
2023-04-18T00:06:05.204Z,94989.00
2023-04-18T00:07:05.234Z,94995.00
2023-04-18T00:08:05.277Z,94989.00
2023-04-18T00:09:05.325Z,94989.00
2023-04-18T00:10:05.275Z,94989.00
2023-04-18T00:11:05.261Z,94987.00
2023-04-18T00:12:05.243Z,94987.00
2023-04-18T00:13:05.298Z,94987.00
2023-04-18T00:14:05.257Z,94987.00
2023-04-18T00:15:05.326Z,94985.00
2023-04-18T00:16:05.271Z,94985.00
2023-04-18T00:17:05.397Z,94983.00
2023-04-18T00:18:05.411Z,94983.00
2023-04-18T00:19:05.359Z,94981.00
2023-04-18T00:20:05.344Z,94983.00
2023-04-18T00:21:05.322Z,94980.00
2023-04-18T00:22:05.359Z,94980.00
2023-04-18T00:23:05.343Z,94981.00
2023-04-18T00:24:05.335Z,94983.00
2023-04-18T00:25:05.346Z,94983.00
2023-04-18T00:26:05.345Z,94983.00
2023-04-18T00:27:05.351Z,94980.00
2023-04-18T00:28:05.404Z,94981.00
2023-04-18T00:29:05.404Z,94983.00
2023-04-18T00:30:05.445Z,94983.00
2023-04-18T00:31:05.454Z,94985.00
2023-04-18T00:32:05.460Z,94983.00
2023-04-18T00:33:05.499Z,94983.00
2023-04-18T00:34:05.435Z,94981.00
2023-04-18T00:35:05.478Z,94983.00
2023-04-18T00:36:05.477Z,94981.00
2023-04-18T00:37:05.489Z,94980.00
2023-04-18T00:38:05.506Z,94983.00
2023-04-18T00:39:05.531Z,94981.00
2023-04-18T00:40:05.563Z,94983.00
2023-04-18T00:41:05.560Z,94983.00
2023-04-18T00:42:05.595Z,94981.00
2023-04-18T00:43:05.568Z,94983.00
2023-04-18T00:44:05.612Z,94981.00
2023-04-18T00:45:05.632Z,94983.00
2023-04-18T00:46:05.728Z,94983.00
2023-04-18T00:47:05.630Z,94978.00
2023-04-18T00:48:05.651Z,94978.00
2023-04-18T00:49:05.668Z,94976.00
2023-04-18T00:50:05.644Z,94974.00
2023-04-18T00:51:05.696Z,94974.00
2023-04-18T00:52:05.737Z,94978.00
2023-04-18T00:53:05.702Z,94976.00
2023-04-18T00:54:05.729Z,94976.00
2023-04-18T00:55:05.763Z,94972.00
2023-04-18T00:56:05.757Z,94974.00
2023-04-18T00:57:05.731Z,94974.00
2023-04-18T00:58:05.807Z,94972.00
2023-04-18T00:59:05.775Z,94972.00
2023-04-18T01:00:05.823Z,94972.00
2023-04-18T01:01:05.817Z,94976.00
2023-04-18T01:02:05.973Z,94972.00
2023-04-18T01:03:05.936Z,94972.00
2023-04-18T01:04:05.890Z,94972.00
2023-04-18T01:05:05.859Z,94972.00
2023-04-18T01:06:05.851Z,94972.00
2023-04-18T01:07:05.936Z,94972.00
2023-04-18T01:08:05.901Z,94972.00
2023-04-18T01:09:05.937Z,94972.00
2023-04-18T01:10:05.946Z,94972.00
2023-04-18T01:11:05.999Z,94972.00
2023-04-18T01:12:05.932Z,94976.00
2023-04-18T01:13:05.994Z,94976.00
2023-04-18T01:14:06.016Z,94970.00
2023-04-18T01:15:05.997Z,94972.00
2023-04-18T01:16:06.008Z,94972.00
2023-04-18T01:17:06.060Z,94972.00
2023-04-18T01:18:06.041Z,94970.00
2023-04-18T01:19:06.088Z,94968.00
2023-04-18T01:20:06.118Z,94970.00
2023-04-18T01:21:06.100Z,94968.00
2023-04-18T01:22:06.128Z,94966.00
2023-04-18T01:23:06.137Z,94964.00
2023-04-18T01:24:06.155Z,94962.00
2023-04-18T01:25:06.210Z,94962.00
2023-04-18T01:26:06.152Z,94964.00
2023-04-18T01:27:06.185Z,94962.00
2023-04-18T01:28:06.251Z,94964.00
2023-04-18T01:29:06.260Z,94962.00
2023-04-18T01:30:06.248Z,94958.00
2023-04-18T01:31:06.298Z,94962.00
2023-04-18T01:32:06.271Z,94958.00
2023-04-18T01:33:06.385Z,94960.00
2023-04-18T01:34:06.282Z,94960.00
2023-04-18T01:35:06.338Z,94964.00
2023-04-18T01:36:06.336Z,94962.00
2023-04-18T01:37:06.335Z,94960.00
2023-04-18T01:38:06.394Z,94960.00
2023-04-18T01:39:06.398Z,94960.00
2023-04-18T01:40:06.495Z,94960.00
2023-04-18T01:41:06.451Z,94960.00
2023-04-18T01:42:06.483Z,94958.00
2023-04-18T01:43:06.553Z,94956.00
2023-04-18T01:44:06.528Z,94956.00
2023-04-18T01:45:06.524Z,94958.00
2023-04-18T01:46:06.604Z,94960.00
2023-04-18T01:47:06.578Z,94954.00
2023-04-18T01:48:06.577Z,94958.00
2023-04-18T01:49:06.625Z,94956.00
2023-04-18T01:50:06.650Z,94958.00
2023-04-18T01:51:06.672Z,94958.00
2023-04-18T01:52:06.681Z,94956.00
2023-04-18T01:53:06.680Z,94958.00
2023-04-18T01:54:06.717Z,94956.00
2023-04-18T01:55:06.738Z,94958.00
2023-04-18T01:56:06.742Z,94958.00
2023-04-18T01:57:06.792Z,94960.00
2023-04-18T01:58:07.462Z,94962.00
2023-04-18T01:59:06.838Z,94962.00
2023-04-18T02:00:06.848Z,94962.00
2023-04-18T02:01:06.938Z,94960.00
2023-04-18T02:02:06.935Z,94962.00
2023-04-18T02:03:06.985Z,94960.00
2023-04-18T02:04:06.905Z,94958.00
2023-04-18T02:05:06.953Z,94958.00
2023-04-18T02:06:06.978Z,94956.00
2023-04-18T02:07:07.026Z,94956.00
2023-04-18T02:08:07.025Z,94956.00
2023-04-18T02:09:07.002Z,94958.00
2023-04-18T02:10:07.047Z,94958.00
2023-04-18T02:11:07.049Z,94960.00
2023-04-18T02:12:07.104Z,94958.00
2023-04-18T02:13:07.128Z,94958.00
2023-04-18T02:14:07.151Z,94960.00
2023-04-18T02:15:07.156Z,94960.00
2023-04-18T02:16:07.266Z,94958.00
2023-04-18T02:17:07.217Z,94958.00
2023-04-18T02:18:07.307Z,94958.00
2023-04-18T02:19:07.237Z,94960.00
2023-04-18T02:20:07.288Z,94958.00
2023-04-18T02:21:07.290Z,94958.00
2023-04-18T02:22:07.303Z,94956.00
2023-04-18T02:23:07.338Z,94958.00
2023-04-18T02:24:07.341Z,94958.00
2023-04-18T02:25:07.381Z,94960.00
2023-04-18T02:26:07.371Z,94960.00
2023-04-18T02:27:07.427Z,94960.00
2023-04-18T02:28:07.411Z,94964.00
2023-04-18T02:29:07.443Z,94962.00
2023-04-18T02:30:07.530Z,94962.00
2023-04-18T02:31:07.486Z,94964.00
2023-04-18T02:32:07.541Z,94964.00
2023-04-18T02:33:07.641Z,94964.00
2023-04-18T02:34:07.516Z,94962.00
2023-04-18T02:35:07.554Z,94964.00
2023-04-18T02:36:07.633Z,94962.00
2023-04-18T02:37:07.635Z,94964.00
2023-04-18T02:38:07.663Z,94964.00
2023-04-18T02:39:07.692Z,94964.00
2023-04-18T02:40:07.653Z,94964.00
2023-04-18T02:41:07.738Z,94960.00
2023-04-18T02:42:07.711Z,94964.00
2023-04-18T02:43:07.774Z,94964.00
2023-04-18T02:44:07.758Z,94964.00
2023-04-18T02:45:07.794Z,94964.00
2023-04-18T02:46:07.837Z,94964.00
2023-04-18T02:47:07.805Z,94964.00
2023-04-18T02:48:07.931Z,94964.00
2023-04-18T02:49:07.864Z,94964.00
2023-04-18T02:50:07.848Z,94964.00
2023-04-18T02:51:07.928Z,94964.00
2023-04-18T02:52:07.910Z,94966.00
2023-04-18T02:53:07.950Z,94964.00
2023-04-18T02:54:07.972Z,94964.00
2023-04-18T02:55:08.029Z,94962.00
2023-04-18T02:56:08.040Z,94958.00
2023-04-18T02:57:08.075Z,94958.00
2023-04-18T02:58:08.041Z,94960.00
2023-04-18T02:59:08.970Z,94956.00
2023-04-18T03:00:08.096Z,94956.00
2023-04-18T03:01:08.134Z,94956.00
2023-04-18T03:02:08.159Z,94956.00
2023-04-18T03:03:08.183Z,94958.00
2023-04-18T03:04:08.156Z,94958.00
2023-04-18T03:05:08.246Z,94956.00
2023-04-18T03:06:08.200Z,94956.00
2023-04-18T03:07:08.240Z,94956.00
2023-04-18T03:08:08.262Z,94956.00
2023-04-18T03:09:08.273Z,94956.00
2023-04-18T03:10:08.297Z,94956.00
2023-04-18T03:11:08.331Z,94952.00
2023-04-18T03:12:08.346Z,94950.00
2023-04-18T03:13:08.411Z,94952.00
2023-04-18T03:14:08.365Z,94952.00
2023-04-18T03:15:08.409Z,94952.00
2023-04-18T03:16:08.481Z,94952.00
2023-04-18T03:17:08.443Z,94954.00
2023-04-18T03:18:08.513Z,94954.00
2023-04-18T03:19:08.526Z,94952.00
2023-04-18T03:20:08.519Z,94952.00
2023-04-18T03:21:08.543Z,94952.00
2023-04-18T03:22:08.574Z,94952.00
2023-04-18T03:23:08.599Z,94948.00
2023-04-18T03:24:09.685Z,94948.00
2023-04-18T03:25:08.646Z,94948.00
2023-04-18T03:26:08.570Z,94946.00
2023-04-18T03:27:08.607Z,94946.00
2023-04-18T03:28:08.612Z,94946.00
2023-04-18T03:29:08.560Z,94946.00
2023-04-18T03:30:08.567Z,94944.00
2023-04-18T03:31:08.604Z,94946.00
2023-04-18T03:32:08.679Z,94946.00
2023-04-18T03:33:08.554Z,94946.00
2023-04-18T03:34:08.537Z,94948.00
2023-04-18T03:35:08.545Z,94948.00
2023-04-18T03:36:08.515Z,94946.00
2023-04-18T03:37:08.526Z,94948.00
2023-04-18T03:38:08.524Z,94948.00
2023-04-18T03:39:08.498Z,94948.00
2023-04-18T03:40:08.467Z,94948.00
2023-04-18T03:41:08.474Z,94950.00
2023-04-18T03:42:08.492Z,94948.00
2023-04-18T03:43:08.464Z,94950.00
2023-04-18T03:44:08.498Z,94948.00
2023-04-18T03:45:08.435Z,94948.00
2023-04-18T03:46:08.493Z,94950.00
2023-04-18T03:47:08.455Z,94946.00
2023-04-18T03:48:08.414Z,94942.00
2023-04-18T03:49:08.428Z,94944.00
2023-04-18T03:50:08.419Z,94944.00
2023-04-18T03:51:08.408Z,94946.00
2023-04-18T03:52:08.445Z,94944.00
2023-04-18T03:53:08.392Z,94946.00
2023-04-18T03:54:08.425Z,94946.00
2023-04-18T03:55:08.375Z,94946.00
2023-04-18T03:56:08.392Z,94944.00
2023-04-18T03:57:08.392Z,94946.00
2023-04-18T03:58:08.413Z,94946.00
2023-04-18T03:59:08.405Z,94948.00
2023-04-18T04:00:08.368Z,94948.00
2023-04-18T04:01:08.372Z,94946.00
2023-04-18T04:02:08.416Z,94960.00
2023-04-18T04:03:08.521Z,94962.00
2023-04-18T04:04:08.403Z,94962.00
2023-04-18T04:05:08.374Z,94964.00
2023-04-18T04:06:08.305Z,94962.00
2023-04-18T04:07:08.315Z,94964.00
2023-04-18T04:08:08.358Z,94964.00
2023-04-18T04:09:08.304Z,94960.00
2023-04-18T04:10:08.270Z,94962.00
2023-04-18T04:11:08.273Z,94962.00
2023-04-18T04:12:08.297Z,94962.00
2023-04-18T04:13:08.302Z,94962.00
2023-04-18T04:14:08.289Z,94960.00
2023-04-18T04:15:08.291Z,94964.00
2023-04-18T04:16:08.293Z,94964.00
2023-04-18T04:17:08.248Z,94962.00
2023-04-18T04:18:08.307Z,94964.00
2023-04-18T04:19:08.554Z,94964.00
2023-04-18T04:20:08.312Z,94964.00
2023-04-18T04:21:08.205Z,94966.00
2023-04-18T04:22:08.232Z,94964.00
2023-04-18T04:23:08.222Z,94970.00
2023-04-18T04:24:08.199Z,94972.00
2023-04-18T04:25:08.239Z,94972.00
2023-04-18T04:26:08.170Z,94974.00
2023-04-18T04:27:08.202Z,94974.00
2023-04-18T04:28:08.208Z,94970.00
2023-04-18T04:29:08.165Z,94972.00
2023-04-18T04:30:08.119Z,94966.00
2023-04-18T04:31:08.256Z,94962.00
2023-04-18T04:32:08.292Z,94960.00
2023-04-18T04:33:08.176Z,94960.00
2023-04-18T04:34:08.116Z,94964.00
2023-04-18T04:35:08.088Z,94966.00
2023-04-18T04:36:08.128Z,94964.00
2023-04-18T04:37:08.169Z,94968.00
2023-04-18T04:38:08.092Z,94968.00
2023-04-18T04:39:08.129Z,94968.00
2023-04-18T04:40:08.103Z,94968.00
2023-04-18T04:41:08.054Z,94970.00
2023-04-18T04:42:08.060Z,94972.00
2023-04-18T04:43:08.087Z,94966.00
2023-04-18T04:44:08.144Z,94972.00
2023-04-18T04:45:08.186Z,94966.00
2023-04-18T04:46:08.251Z,94968.00
2023-04-18T04:47:08.274Z,94970.00
2023-04-18T04:48:08.328Z,94970.00
2023-04-18T04:49:08.337Z,94968.00
2023-04-18T04:50:08.429Z,94968.00
2023-04-18T04:51:08.420Z,94970.00
2023-04-18T04:52:08.483Z,94968.00
2023-04-18T04:53:08.426Z,94970.00
2023-04-18T04:54:08.460Z,94970.00
2023-04-18T04:55:08.520Z,94972.00
2023-04-18T04:56:08.540Z,94972.00
2023-04-18T04:57:08.595Z,94974.00
2023-04-18T04:58:08.621Z,94974.00
2023-04-18T04:59:08.674Z,94974.00
2023-04-18T05:00:08.711Z,94974.00
2023-04-18T05:01:08.806Z,94974.00
2023-04-18T05:02:08.848Z,94974.00
2023-04-18T05:03:09.012Z,94976.00
2023-04-18T05:04:08.970Z,94976.00
2023-04-18T05:05:08.895Z,94976.00
2023-04-18T05:06:08.920Z,94976.00
2023-04-18T05:07:08.951Z,94976.00
2023-04-18T05:08:09.022Z,94978.00
2023-04-18T05:09:09.001Z,94978.00
2023-04-18T05:10:09.074Z,94980.00
2023-04-18T05:11:09.095Z,94978.00
2023-04-18T05:12:09.125Z,94978.00
2023-04-18T05:13:09.212Z,94978.00
2023-04-18T05:14:09.245Z,94981.00
2023-04-18T05:15:09.276Z,94981.00
2023-04-18T05:16:09.369Z,94980.00
2023-04-18T05:17:09.462Z,94983.00
2023-04-18T05:18:09.428Z,94981.00
2023-04-18T05:19:09.417Z,94983.00
2023-04-18T05:20:09.451Z,94981.00
2023-04-18T05:21:09.497Z,94980.00
2023-04-18T05:22:09.531Z,94981.00
2023-04-18T05:23:09.567Z,94980.00
2023-04-18T05:24:09.645Z,94981.00
2023-04-18T05:25:10.475Z,94983.00
2023-04-18T05:26:09.695Z,94983.00
2023-04-18T05:27:09.737Z,94983.00
2023-04-18T05:28:09.786Z,94981.00
2023-04-18T05:29:09.827Z,94981.00
2023-04-18T05:30:09.822Z,94981.00
2023-04-18T05:31:09.937Z,94981.00
2023-04-18T05:32:09.897Z,94980.00
2023-04-18T05:33:09.974Z,94966.00
2023-04-18T05:34:10.016Z,94980.00
2023-04-18T05:35:10.023Z,94980.00
2023-04-18T05:36:10.024Z,94980.00
2023-04-18T05:37:10.075Z,94978.00
2023-04-18T05:38:10.153Z,94983.00
2023-04-18T05:39:10.192Z,94980.00
2023-04-18T05:40:10.336Z,94981.00
2023-04-18T05:41:10.235Z,94981.00
2023-04-18T05:42:10.321Z,94983.00
2023-04-18T05:43:10.327Z,94983.00
2023-04-18T05:44:10.959Z,94983.00
2023-04-18T05:45:10.401Z,94985.00
2023-04-18T05:46:10.518Z,94989.00
2023-04-18T05:47:10.415Z,94989.00
2023-04-18T05:48:10.557Z,94991.00
2023-04-18T05:49:10.432Z,94991.00
2023-04-18T05:50:10.385Z,94999.00
2023-04-18T05:51:11.621Z,94995.00
2023-04-18T05:52:10.400Z,94999.00
2023-04-18T05:53:10.408Z,94993.00
2023-04-18T05:54:10.408Z,94993.00
2023-04-18T05:55:10.449Z,94993.00
2023-04-18T05:56:10.411Z,94995.00
2023-04-18T05:57:10.953Z,94997.00
2023-04-18T05:58:10.430Z,94997.00
2023-04-18T05:59:10.441Z,95009.00
2023-04-18T06:00:10.411Z,95013.00
2023-04-18T06:01:10.519Z,95009.00
2023-04-18T06:02:10.472Z,95009.00
2023-04-18T06:03:11.354Z,95011.00
2023-04-18T06:04:10.525Z,95011.00
2023-04-18T06:05:10.698Z,95017.00
2023-04-18T06:06:10.443Z,95015.00
2023-04-18T06:07:10.456Z,95017.00
2023-04-18T06:08:10.454Z,95017.00
2023-04-18T06:09:10.458Z,95017.00
2023-04-18T06:10:10.511Z,95017.00
2023-04-18T06:11:10.498Z,95019.00
2023-04-18T06:12:10.505Z,95023.00
2023-04-18T06:13:10.524Z,95021.00
2023-04-18T06:14:10.491Z,95021.00
2023-04-18T06:15:10.502Z,95023.00
2023-04-18T06:16:10.574Z,95003.00
2023-04-18T06:17:10.513Z,95021.00
2023-04-18T06:18:10.529Z,95023.00
2023-04-18T06:19:10.523Z,95025.00
2023-04-18T06:20:10.542Z,95023.00
2023-04-18T06:21:10.557Z,95025.00
2023-04-18T06:22:10.550Z,95023.00
2023-04-18T06:23:10.557Z,95025.00
2023-04-18T06:24:10.612Z,95027.00
2023-04-18T06:25:10.627Z,95025.00
2023-04-18T06:26:10.589Z,95027.00
2023-04-18T06:27:20.467Z,95029.00
2023-04-18T06:28:11.622Z,95027.00
2023-04-18T06:29:10.570Z,95015.00
2023-04-18T06:30:10.951Z,95015.00
2023-04-18T06:31:10.577Z,95013.00
2023-04-18T06:32:10.632Z,95013.00
2023-04-18T06:33:10.952Z,95029.00
2023-04-18T06:34:10.571Z,95035.00
2023-04-18T06:35:11.456Z,95042.00
2023-04-18T06:36:10.531Z,95019.00
2023-04-18T06:37:10.522Z,95017.00
2023-04-18T06:38:10.495Z,95017.00
2023-04-18T06:39:10.524Z,95019.00
2023-04-18T06:40:10.932Z,95017.00
2023-04-18T06:41:10.486Z,95013.00
2023-04-18T06:42:10.494Z,95013.00
2023-04-18T06:43:10.489Z,95017.00
2023-04-18T06:44:10.586Z,95021.00
2023-04-18T06:45:10.558Z,95019.00
2023-04-18T06:46:10.496Z,95021.00
2023-04-18T06:47:10.456Z,95019.00
2023-04-18T06:48:10.547Z,95023.00
2023-04-18T06:49:10.469Z,95023.00
2023-04-18T06:50:10.443Z,95019.00
2023-04-18T06:51:10.431Z,95021.00
2023-04-18T06:52:10.507Z,95017.00
2023-04-18T06:53:10.967Z,95019.00
2023-04-18T06:54:10.401Z,95025.00
2023-04-18T06:55:10.400Z,95023.00
2023-04-18T06:56:10.411Z,95023.00
2023-04-18T06:57:10.411Z,95017.00
2023-04-18T06:58:10.380Z,95021.00
2023-04-18T06:59:10.379Z,95019.00
2023-04-18T07:00:10.418Z,95017.00
2023-04-18T07:01:10.461Z,95015.00
2023-04-18T07:02:10.396Z,95017.00
2023-04-18T07:03:11.127Z,95017.00
2023-04-18T07:04:10.523Z,95017.00
2023-04-18T07:05:10.330Z,95015.00
2023-04-18T07:06:10.333Z,95015.00
2023-04-18T07:07:10.351Z,95015.00
2023-04-18T07:08:10.344Z,95021.00
2023-04-18T07:09:10.309Z,95015.00
2023-04-18T07:10:10.303Z,95015.00
2023-04-18T07:11:10.307Z,95011.00
2023-04-18T07:12:10.321Z,95013.00
2023-04-18T07:13:10.259Z,95013.00
2023-04-18T07:14:10.292Z,95017.00
2023-04-18T07:15:10.248Z,95015.00
2023-04-18T07:16:10.367Z,95013.00
2023-04-18T07:17:10.916Z,95013.00
2023-04-18T07:18:10.252Z,95013.00
2023-04-18T07:19:10.266Z,95009.00
2023-04-18T07:20:11.611Z,95013.00
2023-04-18T07:21:10.282Z,95009.00
2023-04-18T07:22:10.279Z,95011.00
2023-04-18T07:23:10.350Z,95009.00
2023-04-18T07:24:10.244Z,95011.00
2023-04-18T07:25:10.249Z,95011.00
2023-04-18T07:26:10.250Z,95007.00
2023-04-18T07:27:10.268Z,95011.00
2023-04-18T07:28:10.273Z,95009.00
2023-04-18T07:29:10.243Z,95013.00
2023-04-18T07:30:10.287Z,95013.00
2023-04-18T07:31:10.360Z,95011.00
2023-04-18T07:32:10.296Z,95013.00
2023-04-18T07:33:10.304Z,95013.00
2023-04-18T07:34:10.320Z,95015.00
2023-04-18T07:35:10.473Z,95015.00
2023-04-18T07:36:10.267Z,95013.00
2023-04-18T07:37:10.288Z,95017.00
2023-04-18T07:38:10.281Z,95017.00
2023-04-18T07:39:10.373Z,95021.00
2023-04-18T07:40:10.396Z,95021.00
2023-04-18T07:41:10.454Z,95019.00
2023-04-18T07:42:10.537Z,95023.00
2023-04-18T07:43:14.439Z,95019.00
2023-04-18T07:44:10.544Z,95021.00
2023-04-18T07:45:10.554Z,95019.00
2023-04-18T07:46:10.581Z,95019.00
2023-04-18T07:47:10.589Z,95025.00
2023-04-18T07:48:10.541Z,95021.00
2023-04-18T07:49:10.479Z,95023.00
2023-04-18T07:50:10.916Z,95019.00
2023-04-18T07:51:10.479Z,95025.00
2023-04-18T07:52:10.495Z,95021.00
2023-04-18T07:53:10.452Z,95023.00
2023-04-18T07:54:10.458Z,95021.00
2023-04-18T07:55:10.914Z,95019.00
2023-04-18T07:56:10.466Z,95019.00
2023-04-18T07:57:10.479Z,95017.00
2023-04-18T07:58:10.420Z,95019.00
2023-04-18T07:59:10.437Z,95019.00
2023-04-18T08:00:10.532Z,95017.00
2023-04-18T08:01:10.410Z,95019.00
2023-04-18T08:02:10.514Z,95017.00
2023-04-18T08:03:10.621Z,95015.00
2023-04-18T08:04:10.773Z,95015.00
2023-04-18T08:05:10.536Z,95021.00
2023-04-18T08:06:10.440Z,95015.00
2023-04-18T08:07:10.380Z,95015.00
2023-04-18T08:08:10.407Z,95015.00
2023-04-18T08:09:10.409Z,95015.00
2023-04-18T08:10:10.351Z,95015.00
2023-04-18T08:11:10.384Z,95013.00
2023-04-18T08:12:10.367Z,95025.00
2023-04-18T08:13:10.329Z,95023.00
2023-04-18T08:14:10.332Z,95023.00
2023-04-18T08:15:10.337Z,95023.00
2023-04-18T08:16:10.423Z,95023.00
2023-04-18T08:17:10.316Z,95021.00
2023-04-18T08:18:10.323Z,95019.00
2023-04-18T08:19:10.319Z,95019.00
2023-04-18T08:20:10.353Z,95019.00
2023-04-18T08:21:10.290Z,95017.00
2023-04-18T08:22:10.277Z,95017.00
2023-04-18T08:23:12.844Z,95001.00
2023-04-18T08:24:10.301Z,95001.00
2023-04-18T08:25:10.417Z,95003.00
2023-04-18T08:26:10.258Z,94995.00
2023-04-18T08:27:10.266Z,95001.00
2023-04-18T08:28:10.209Z,95001.00
2023-04-18T08:29:10.219Z,95001.00
2023-04-18T08:30:10.239Z,94997.00
2023-04-18T08:31:10.260Z,94997.00
2023-04-18T08:32:10.230Z,94997.00
2023-04-18T08:33:10.295Z,94997.00
2023-04-18T08:34:10.230Z,94995.00
2023-04-18T08:35:10.173Z,94997.00
2023-04-18T08:36:10.276Z,94993.00
2023-04-18T08:37:10.171Z,94999.00
2023-04-18T08:38:10.237Z,94997.00
2023-04-18T08:39:10.157Z,94997.00
2023-04-18T08:40:10.201Z,94995.00
2023-04-18T08:41:10.157Z,94995.00
2023-04-18T08:42:10.173Z,94993.00
2023-04-18T08:43:10.121Z,94995.00
2023-04-18T08:44:10.138Z,94995.00
2023-04-18T08:45:10.128Z,94995.00
2023-04-18T08:46:10.181Z,95003.00
2023-04-18T08:47:10.143Z,94997.00
2023-04-18T08:48:10.444Z,94999.00
2023-04-18T08:49:11.904Z,95003.00
2023-04-18T08:50:10.108Z,95003.00
2023-04-18T08:51:10.071Z,95005.00
2023-04-18T08:52:10.079Z,95003.00
2023-04-18T08:53:10.102Z,95003.00
2023-04-18T08:54:10.098Z,95003.00
2023-04-18T08:55:10.042Z,94999.00
2023-04-18T08:56:10.034Z,95001.00
2023-04-18T08:57:10.050Z,95005.00
2023-04-18T08:58:10.127Z,95005.00
2023-04-18T08:59:10.195Z,95003.00
2023-04-18T09:00:10.282Z,95003.00
2023-04-18T09:01:10.289Z,95007.00
2023-04-18T09:02:10.381Z,95007.00
2023-04-18T09:03:10.470Z,95003.00
2023-04-18T09:04:10.436Z,95007.00
2023-04-18T09:05:10.479Z,95001.00
2023-04-18T09:06:10.531Z,95003.00
2023-04-18T09:07:10.591Z,95003.00
2023-04-18T09:08:10.603Z,95005.00
2023-04-18T09:09:10.704Z,95001.00
2023-04-18T09:10:10.711Z,95003.00
2023-04-18T09:11:10.776Z,94997.00
2023-04-18T09:12:10.857Z,94995.00
2023-04-18T09:13:10.874Z,94997.00
2023-04-18T09:14:11.047Z,94997.00
2023-04-18T09:15:11.015Z,94999.00
2023-04-18T09:16:11.075Z,94997.00
2023-04-18T09:17:11.059Z,94995.00
2023-04-18T09:18:11.119Z,94995.00
2023-04-18T09:19:11.305Z,94993.00
2023-04-18T09:20:11.188Z,94993.00
2023-04-18T09:21:11.195Z,94991.00
2023-04-18T09:22:11.267Z,94989.00
2023-04-18T09:23:11.685Z,94991.00
2023-04-18T09:24:11.499Z,94989.00
2023-04-18T09:25:11.216Z,94987.00
2023-04-18T09:26:11.232Z,94989.00
2023-04-18T09:27:11.910Z,94989.00
2023-04-18T09:28:11.287Z,94989.00
2023-04-18T09:29:11.410Z,94991.00
2023-04-18T09:30:11.294Z,94987.00
2023-04-18T09:31:11.335Z,94989.00
2023-04-18T09:32:11.359Z,94985.00
2023-04-18T09:33:11.386Z,94985.00
2023-04-18T09:34:11.404Z,94987.00
2023-04-18T09:35:11.442Z,94989.00
2023-04-18T09:36:11.850Z,94987.00
2023-04-18T09:37:11.504Z,94985.00
2023-04-18T09:38:11.466Z,94985.00
2023-04-18T09:39:11.651Z,94987.00
2023-04-18T09:40:11.648Z,94987.00
2023-04-18T09:41:11.845Z,94987.00
2023-04-18T09:42:11.671Z,94987.00
2023-04-18T09:43:11.668Z,94983.00
2023-04-18T09:44:14.537Z,94989.00
2023-04-18T09:45:11.674Z,94991.00
2023-04-18T09:46:11.916Z,94989.00
2023-04-18T09:47:11.645Z,94989.00
2023-04-18T09:48:11.754Z,94991.00
2023-04-18T09:49:11.729Z,94987.00
2023-04-18T09:50:11.710Z,94989.00
2023-04-18T09:51:11.678Z,94987.00
2023-04-18T09:52:11.927Z,94985.00
2023-04-18T09:53:11.672Z,94989.00
2023-04-18T09:54:11.793Z,94989.00
2023-04-18T09:55:11.707Z,94987.00
2023-04-18T09:56:11.591Z,94985.00
2023-04-18T09:57:11.584Z,94985.00
2023-04-18T09:58:11.596Z,94983.00
2023-04-18T09:59:11.696Z,94983.00
2023-04-18T10:00:11.574Z,94983.00
2023-04-18T10:01:11.582Z,94981.00
2023-04-18T10:02:11.631Z,94978.00
2023-04-18T10:03:11.672Z,94978.00
2023-04-18T10:04:11.716Z,94978.00
2023-04-18T10:05:11.574Z,94978.00
2023-04-18T10:06:11.542Z,94978.00
2023-04-18T10:07:12.369Z,94978.00
2023-04-18T10:08:11.511Z,94976.00
2023-04-18T10:09:11.704Z,94978.00
2023-04-18T10:10:11.518Z,94976.00
2023-04-18T10:11:11.541Z,94976.00
2023-04-18T10:12:11.474Z,94976.00
2023-04-18T10:13:11.499Z,94972.00
2023-04-18T10:14:11.543Z,94970.00
2023-04-18T10:15:11.497Z,94970.00
2023-04-18T10:16:11.910Z,94966.00
2023-04-18T10:17:11.437Z,94968.00
2023-04-18T10:18:11.488Z,94962.00
2023-04-18T10:19:11.702Z,94964.00
2023-04-18T10:20:11.442Z,94962.00
2023-04-18T10:21:11.437Z,94960.00
2023-04-18T10:22:11.443Z,94958.00
2023-04-18T10:23:11.407Z,94954.00
2023-04-18T10:24:11.447Z,94954.00
2023-04-18T10:25:11.431Z,94940.00
2023-04-18T10:26:11.380Z,94938.00
2023-04-18T10:27:11.840Z,94940.00
2023-04-18T10:28:11.425Z,94940.00
2023-04-18T10:29:11.392Z,94938.00
2023-04-18T10:30:11.348Z,94936.00
2023-04-18T10:31:11.416Z,94934.00
2023-04-18T10:32:11.810Z,94931.00
2023-04-18T10:33:18.482Z,94944.00
2023-04-18T10:34:12.523Z,94944.00
2023-04-18T10:35:11.322Z,94940.00
2023-04-18T10:36:11.293Z,94938.00
2023-04-18T10:37:11.310Z,94938.00
2023-04-18T10:38:11.352Z,94936.00
2023-04-18T10:39:11.309Z,94934.00
2023-04-18T10:40:11.316Z,94933.00
2023-04-18T10:41:11.281Z,94927.00
2023-04-18T10:42:11.280Z,94936.00
2023-04-18T10:43:11.278Z,94938.00
2023-04-18T10:44:11.237Z,94934.00
2023-04-18T10:45:11.249Z,94934.00
2023-04-18T10:46:23.829Z,94933.00
2023-04-18T10:47:12.236Z,94929.00
2023-04-18T10:48:11.374Z,94933.00
2023-04-18T10:49:11.433Z,94929.00
2023-04-18T10:50:11.248Z,94933.00
2023-04-18T10:51:11.197Z,94929.00
2023-04-18T10:52:13.327Z,94927.00
2023-04-18T10:53:11.176Z,94929.00
2023-04-18T10:54:11.178Z,94921.00
2023-04-18T10:55:12.350Z,94927.00
2023-04-18T10:56:11.177Z,94925.00
2023-04-18T10:57:11.250Z,94921.00
2023-04-18T10:58:11.271Z,94923.00
2023-04-18T10:59:11.356Z,94921.00
2023-04-18T11:00:11.402Z,94917.00
2023-04-18T11:01:11.488Z,94919.00
2023-04-18T11:02:11.563Z,94917.00
2023-04-18T11:03:11.672Z,94917.00
2023-04-18T11:04:11.729Z,94917.00
2023-04-18T11:05:11.703Z,94921.00
2023-04-18T11:06:11.809Z,94917.00
2023-04-18T11:07:11.813Z,94917.00
2023-04-18T11:08:11.877Z,94915.00
2023-04-18T11:09:11.947Z,94913.00
2023-04-18T11:10:11.963Z,94905.00
2023-04-18T11:11:12.048Z,94905.00
2023-04-18T11:12:12.171Z,94903.00
2023-04-18T11:13:12.168Z,94903.00
2023-04-18T11:14:12.357Z,94903.00
2023-04-18T11:15:12.277Z,94901.00
2023-04-18T11:16:12.351Z,94899.00
2023-04-18T11:17:12.360Z,94901.00
2023-04-18T11:18:12.491Z,94899.00
2023-04-18T11:19:12.518Z,94889.00
2023-04-18T11:20:12.938Z,94878.00
2023-04-18T11:21:12.626Z,94880.00
2023-04-18T11:22:12.674Z,94899.00
2023-04-18T11:23:12.740Z,94895.00
2023-04-18T11:24:12.983Z,94897.00
2023-04-18T11:25:13.303Z,94897.00
2023-04-18T11:26:12.901Z,94897.00
2023-04-18T11:27:13.006Z,94899.00
2023-04-18T11:28:13.027Z,94897.00
2023-04-18T11:29:13.088Z,94897.00
2023-04-18T11:30:13.166Z,94893.00
2023-04-18T11:31:13.207Z,94893.00
2023-04-18T11:32:13.483Z,94891.00
2023-04-18T11:33:13.279Z,94899.00
2023-04-18T11:34:13.502Z,94897.00
2023-04-18T11:35:13.415Z,94893.00
2023-04-18T11:36:13.452Z,94895.00
2023-04-18T11:37:13.485Z,94897.00
2023-04-18T11:38:13.612Z,94895.00
2023-04-18T11:39:13.604Z,94895.00
2023-04-18T11:40:13.608Z,94893.00
2023-04-18T11:41:13.616Z,94893.00
2023-04-18T11:42:13.625Z,94893.00
2023-04-18T11:43:13.658Z,94891.00
2023-04-18T11:44:13.750Z,94889.00